sensor_id;sensor_type;location;lat;lon;timestamp;pressure;altitude;pressure_sealevel;temperature;humidity
51067;BME280;37112;45.892;-123.962;2023-05-21T00:01:18;102121.71;;;15.60;73.38
51067;BME280;37112;45.892;-123.962;2023-05-21T00:03:40;102118.20;;;15.62;73.62
51067;BME280;37112;45.892;-123.962;2023-05-21T00:06:09;102115.59;;;15.69;73.77
51067;BME280;37112;45.892;-123.962;2023-05-21T00:08:33;102114.65;;;15.72;73.80
51067;BME280;37112;45.892;-123.962;2023-05-21T00:11:04;102113.75;;;15.75;73.73
51067;BME280;37112;45.892;-123.962;2023-05-21T00:13:25;102114.45;;;15.75;73.36
51067;BME280;37112;45.892;-123.962;2023-05-21T00:16:00;102116.27;;;15.72;73.33
51067;BME280;37112;45.892;-123.962;2023-05-21T00:18:34;102116.63;;;15.72;73.59
51067;BME280;37112;45.892;-123.962;2023-05-21T00:21:00;102113.70;;;15.65;73.37
51067;BME280;37112;45.892;-123.962;2023-05-21T00:23:36;102118.16;;;15.63;73.65
51067;BME280;37112;45.892;-123.962;2023-05-21T00:26:06;102117.10;;;15.59;73.77
51067;BME280;37112;45.892;-123.962;2023-05-21T00:28:41;102114.80;;;15.59;73.93
51067;BME280;37112;45.892;-123.962;2023-05-21T00:31:07;102112.37;;;15.57;74.12
51067;BME280;37112;45.892;-123.962;2023-05-21T00:33:37;102110.45;;;15.51;74.38
51067;BME280;37112;45.892;-123.962;2023-05-21T00:36:03;102109.67;;;15.42;74.67
51067;BME280;37112;45.892;-123.962;2023-05-21T00:38:31;102116.19;;;15.32;75.07
51067;BME280;37112;45.892;-123.962;2023-05-21T00:40:59;102111.89;;;15.27;75.34
51067;BME280;37112;45.892;-123.962;2023-05-21T00:43:17;102113.09;;;15.22;75.94
51067;BME280;37112;45.892;-123.962;2023-05-21T00:45:42;102113.62;;;15.20;76.19
51067;BME280;37112;45.892;-123.962;2023-05-21T00:48:12;102119.86;;;15.14;75.94
51067;BME280;37112;45.892;-123.962;2023-05-21T00:50:47;102112.84;;;15.09;76.26
51067;BME280;37112;45.892;-123.962;2023-05-21T00:53:21;102112.33;;;15.06;76.45
51067;BME280;37112;45.892;-123.962;2023-05-21T00:55:53;102111.38;;;15.04;76.56
51067;BME280;37112;45.892;-123.962;2023-05-21T00:58:27;102110.01;;;15.01;76.49
51067;BME280;37112;45.892;-123.962;2023-05-21T01:00:48;102109.69;;;14.97;76.79
51067;BME280;37112;45.892;-123.962;2023-05-21T01:03:15;102109.31;;;14.92;76.70
51067;BME280;37112;45.892;-123.962;2023-05-21T01:05:37;102107.91;;;14.83;77.15
51067;BME280;37112;45.892;-123.962;2023-05-21T01:08:10;102106.55;;;14.80;77.52
51067;BME280;37112;45.892;-123.962;2023-05-21T01:10:39;102107.02;;;14.77;77.47
51067;BME280;37112;45.892;-123.962;2023-05-21T01:13:04;102106.83;;;14.75;77.49
51067;BME280;37112;45.892;-123.962;2023-05-21T01:15:36;102112.36;;;14.72;77.74
51067;BME280;37112;45.892;-123.962;2023-05-21T01:17:59;102112.77;;;14.68;77.66
51067;BME280;37112;45.892;-123.962;2023-05-21T01:20:24;102108.70;;;14.68;77.80
51067;BME280;37112;45.892;-123.962;2023-05-21T01:22:54;102102.83;;;14.70;78.06
51067;BME280;37112;45.892;-123.962;2023-05-21T01:25:22;102106.15;;;14.68;77.98
51067;BME280;37112;45.892;-123.962;2023-05-21T01:27:45;102111.58;;;14.70;78.17
51067;BME280;37112;45.892;-123.962;2023-05-21T01:30:21;102113.17;;;14.70;78.04
51067;BME280;37112;45.892;-123.962;2023-05-21T01:32:54;102108.29;;;14.66;77.87
51067;BME280;37112;45.892;-123.962;2023-05-21T01:35:31;102110.67;;;14.59;77.90
51067;BME280;37112;45.892;-123.962;2023-05-21T01:37:57;102108.22;;;14.56;77.99
51067;BME280;37112;45.892;-123.962;2023-05-21T01:40:34;102105.36;;;14.56;78.20
51067;BME280;37112;45.892;-123.962;2023-05-21T01:43:14;102100.36;;;14.56;78.17
51067;BME280;37112;45.892;-123.962;2023-05-21T01:45:50;102107.48;;;14.53;77.96
51067;BME280;37112;45.892;-123.962;2023-05-21T01:48:28;102109.39;;;14.51;78.03
51067;BME280;37112;45.892;-123.962;2023-05-21T01:51:04;102113.38;;;14.47;77.89
51067;BME280;37112;45.892;-123.962;2023-05-21T01:53:43;102108.85;;;14.45;78.06
51067;BME280;37112;45.892;-123.962;2023-05-21T01:56:12;102111.33;;;14.45;78.24
51067;BME280;37112;45.892;-123.962;2023-05-21T01:58:37;102110.20;;;14.47;78.31
51067;BME280;37112;45.892;-123.962;2023-05-21T02:01:14;102114.33;;;14.46;78.48
51067;BME280;37112;45.892;-123.962;2023-05-21T02:03:39;102115.21;;;14.43;78.61
51067;BME280;37112;45.892;-123.962;2023-05-21T02:05:59;102114.02;;;14.42;78.72
51067;BME280;37112;45.892;-123.962;2023-05-21T02:08:16;102110.44;;;14.45;79.00
51067;BME280;37112;45.892;-123.962;2023-05-21T02:10:50;102114.00;;;14.45;78.80
51067;BME280;37112;45.892;-123.962;2023-05-21T02:13:08;102114.24;;;14.42;78.73
51067;BME280;37112;45.892;-123.962;2023-05-21T02:15:30;102120.35;;;14.38;79.22
51067;BME280;37112;45.892;-123.962;2023-05-21T02:17:57;102124.29;;;14.32;79.53
51067;BME280;37112;45.892;-123.962;2023-05-21T02:20:33;102125.84;;;14.27;80.28
51067;BME280;37112;45.892;-123.962;2023-05-21T02:22:53;102128.08;;;14.19;80.30
51067;BME280;37112;45.892;-123.962;2023-05-21T02:25:12;102134.79;;;14.15;81.06
51067;BME280;37112;45.892;-123.962;2023-05-21T02:27:47;102136.00;;;14.07;81.01
51067;BME280;37112;45.892;-123.962;2023-05-21T02:30:25;102136.34;;;14.04;81.24
51067;BME280;37112;45.892;-123.962;2023-05-21T02:33:00;102136.26;;;14.03;81.58
51067;BME280;37112;45.892;-123.962;2023-05-21T02:35:26;102138.80;;;14.02;81.89
51067;BME280;37112;45.892;-123.962;2023-05-21T02:37:44;102140.50;;;14.03;82.02
51067;BME280;37112;45.892;-123.962;2023-05-21T02:40:15;102140.04;;;14.02;82.24
51067;BME280;37112;45.892;-123.962;2023-05-21T02:42:40;102140.02;;;13.99;82.08
51067;BME280;37112;45.892;-123.962;2023-05-21T02:45:13;102146.21;;;14.00;82.34
51067;BME280;37112;45.892;-123.962;2023-05-21T02:47:46;102151.60;;;14.03;82.54
51067;BME280;37112;45.892;-123.962;2023-05-21T02:50:09;102153.91;;;14.06;82.67
51067;BME280;37112;45.892;-123.962;2023-05-21T02:52:32;102154.81;;;14.09;82.68
51067;BME280;37112;45.892;-123.962;2023-05-21T02:55:09;102156.33;;;14.13;82.69
51067;BME280;37112;45.892;-123.962;2023-05-21T02:57:37;102160.04;;;14.14;82.43
51067;BME280;37112;45.892;-123.962;2023-05-21T03:00:05;102164.36;;;14.10;82.10
51067;BME280;37112;45.892;-123.962;2023-05-21T03:02:30;102167.42;;;14.07;81.97
51067;BME280;37112;45.892;-123.962;2023-05-21T03:05:06;102170.33;;;14.03;81.91
51067;BME280;37112;45.892;-123.962;2023-05-21T03:07:40;102175.92;;;14.03;82.11
51067;BME280;37112;45.892;-123.962;2023-05-21T03:10:02;102175.70;;;14.03;82.33
51067;BME280;37112;45.892;-123.962;2023-05-21T03:12:28;102174.85;;;14.02;82.35
51067;BME280;37112;45.892;-123.962;2023-05-21T03:15:02;102171.92;;;14.03;82.30
51067;BME280;37112;45.892;-123.962;2023-05-21T03:17:19;102172.67;;;14.03;82.18
51067;BME280;37112;45.892;-123.962;2023-05-21T03:19:47;102174.66;;;14.05;82.35
51067;BME280;37112;45.892;-123.962;2023-05-21T03:22:06;102178.83;;;14.07;82.33
51067;BME280;37112;45.892;-123.962;2023-05-21T03:24:34;102183.48;;;14.07;82.09
51067;BME280;37112;45.892;-123.962;2023-05-21T03:27:02;102181.10;;;14.05;82.03
51067;BME280;37112;45.892;-123.962;2023-05-21T03:29:31;102180.73;;;14.05;82.04
51067;BME280;37112;45.892;-123.962;2023-05-21T03:32:00;102181.52;;;14.04;82.03
51067;BME280;37112;45.892;-123.962;2023-05-21T03:34:24;102181.95;;;14.03;82.06
51067;BME280;37112;45.892;-123.962;2023-05-21T03:36:59;102182.21;;;14.02;82.09
51067;BME280;37112;45.892;-123.962;2023-05-21T03:39:21;102183.06;;;13.99;81.95
51067;BME280;37112;45.892;-123.962;2023-05-21T03:41:49;102186.84;;;13.96;81.92
51067;BME280;37112;45.892;-123.962;2023-05-21T03:44:09;102190.09;;;13.95;81.98
51067;BME280;37112;45.892;-123.962;2023-05-21T03:46:37;102188.76;;;13.93;81.98
51067;BME280;37112;45.892;-123.962;2023-05-21T03:49:12;102188.52;;;13.88;81.66
51067;BME280;37112;45.892;-123.962;2023-05-21T03:51:40;102186.95;;;13.84;81.57
51067;BME280;37112;45.892;-123.962;2023-05-21T03:54:08;102192.42;;;13.82;81.72
51067;BME280;37112;45.892;-123.962;2023-05-21T03:56:36;102194.13;;;13.81;81.70
51067;BME280;37112;45.892;-123.962;2023-05-21T03:58:56;102194.73;;;13.83;82.01
51067;BME280;37112;45.892;-123.962;2023-05-21T04:01:30;102201.94;;;13.84;82.01
51067;BME280;37112;45.892;-123.962;2023-05-21T04:03:50;102201.27;;;13.84;82.03
51067;BME280;37112;45.892;-123.962;2023-05-21T04:06:17;102209.81;;;13.84;82.29
51067;BME280;37112;45.892;-123.962;2023-05-21T04:08:38;102211.55;;;13.85;82.48
51067;BME280;37112;45.892;-123.962;2023-05-21T04:11:05;102212.47;;;13.84;82.51
51067;BME280;37112;45.892;-123.962;2023-05-21T04:13:25;102214.73;;;13.82;82.50
51067;BME280;37112;45.892;-123.962;2023-05-21T04:15:55;102220.76;;;13.80;82.44
51067;BME280;37112;45.892;-123.962;2023-05-21T04:18:22;102227.47;;;13.79;82.57
51067;BME280;37112;45.892;-123.962;2023-05-21T04:20:55;102228.67;;;13.80;82.99
51067;BME280;37112;45.892;-123.962;2023-05-21T04:23:17;102234.91;;;13.80;82.90
51067;BME280;37112;45.892;-123.962;2023-05-21T04:25:43;102235.21;;;13.77;82.79
51067;BME280;37112;45.892;-123.962;2023-05-21T04:28:13;102235.73;;;13.75;82.82
51067;BME280;37112;45.892;-123.962;2023-05-21T04:30:45;102242.52;;;13.75;82.90
51067;BME280;37112;45.892;-123.962;2023-05-21T04:33:05;102248.37;;;13.72;82.90
51067;BME280;37112;45.892;-123.962;2023-05-21T04:35:32;102252.67;;;13.72;82.94
51067;BME280;37112;45.892;-123.962;2023-05-21T04:37:59;102258.45;;;13.71;83.08
51067;BME280;37112;45.892;-123.962;2023-05-21T04:40:28;102258.42;;;13.71;83.28
51067;BME280;37112;45.892;-123.962;2023-05-21T04:43:00;102260.50;;;13.73;83.42
51067;BME280;37112;45.892;-123.962;2023-05-21T04:45:34;102267.46;;;13.73;83.45
51067;BME280;37112;45.892;-123.962;2023-05-21T04:48:00;102265.31;;;13.69;83.40
51067;BME280;37112;45.892;-123.962;2023-05-21T04:50:35;102262.78;;;13.66;83.27
51067;BME280;37112;45.892;-123.962;2023-05-21T04:53:04;102263.16;;;13.66;83.35
51067;BME280;37112;45.892;-123.962;2023-05-21T04:55:28;102265.67;;;13.65;83.41
51067;BME280;37112;45.892;-123.962;2023-05-21T04:57:55;102266.45;;;13.65;83.40
51067;BME280;37112;45.892;-123.962;2023-05-21T05:00:30;102265.17;;;13.65;83.54
51067;BME280;37112;45.892;-123.962;2023-05-21T05:02:59;102264.75;;;13.66;83.51
51067;BME280;37112;45.892;-123.962;2023-05-21T05:05:26;102269.42;;;13.69;83.61
51067;BME280;37112;45.892;-123.962;2023-05-21T05:07:49;102270.65;;;13.70;83.54
51067;BME280;37112;45.892;-123.962;2023-05-21T05:10:16;102272.63;;;13.70;83.62
51067;BME280;37112;45.892;-123.962;2023-05-21T05:12:48;102270.98;;;13.70;83.59
51067;BME280;37112;45.892;-123.962;2023-05-21T05:15:24;102272.29;;;13.69;83.50
51067;BME280;37112;45.892;-123.962;2023-05-21T05:18:02;102267.45;;;13.69;83.51
51067;BME280;37112;45.892;-123.962;2023-05-21T05:20:37;102266.05;;;13.69;83.58
51067;BME280;37112;45.892;-123.962;2023-05-21T05:23:13;102270.33;;;13.69;83.42
51067;BME280;37112;45.892;-123.962;2023-05-21T05:25:31;102271.27;;;13.68;83.45
51067;BME280;37112;45.892;-123.962;2023-05-21T05:28:02;102272.85;;;13.68;83.54
51067;BME280;37112;45.892;-123.962;2023-05-21T05:30:29;102273.10;;;13.71;83.73
51067;BME280;37112;45.892;-123.962;2023-05-21T05:32:53;102273.34;;;13.72;83.62
51067;BME280;37112;45.892;-123.962;2023-05-21T05:35:15;102272.52;;;13.72;83.54
51067;BME280;37112;45.892;-123.962;2023-05-21T05:37:49;102274.64;;;13.72;83.60
51067;BME280;37112;45.892;-123.962;2023-05-21T05:40:10;102281.21;;;13.72;83.66
51067;BME280;37112;45.892;-123.962;2023-05-21T05:42:36;102279.88;;;13.71;83.59
51067;BME280;37112;45.892;-123.962;2023-05-21T05:45:13;102280.20;;;13.68;83.39
51067;BME280;37112;45.892;-123.962;2023-05-21T05:47:38;102277.17;;;13.64;83.33
51067;BME280;37112;45.892;-123.962;2023-05-21T05:49:58;102277.48;;;13.62;83.55
51067;BME280;37112;45.892;-123.962;2023-05-21T05:52:25;102278.98;;;13.64;83.90
51067;BME280;37112;45.892;-123.962;2023-05-21T05:55:00;102277.42;;;13.63;83.69
51067;BME280;37112;45.892;-123.962;2023-05-21T05:57:22;102277.08;;;13.63;83.86
51067;BME280;37112;45.892;-123.962;2023-05-21T05:59:48;102274.64;;;13.58;83.76
51067;BME280;37112;45.892;-123.962;2023-05-21T06:02:14;102279.33;;;13.58;84.08
51067;BME280;37112;45.892;-123.962;2023-05-21T06:04:44;102280.10;;;13.56;84.10
51067;BME280;37112;45.892;-123.962;2023-05-21T06:07:17;102283.45;;;13.54;84.16
51067;BME280;37112;45.892;-123.962;2023-05-21T06:09:43;102285.89;;;13.52;84.07
51067;BME280;37112;45.892;-123.962;2023-05-21T06:12:17;102286.96;;;13.52;84.38
51067;BME280;37112;45.892;-123.962;2023-05-21T06:14:34;102282.82;;;13.53;84.46
51067;BME280;37112;45.892;-123.962;2023-05-21T06:17:08;102276.77;;;13.52;84.64
51067;BME280;37112;45.892;-123.962;2023-05-21T06:19:43;102273.11;;;13.51;84.53
51067;BME280;37112;45.892;-123.962;2023-05-21T06:22:16;102273.57;;;13.49;84.43
51067;BME280;37112;45.892;-123.962;2023-05-21T06:24:44;102270.64;;;13.47;84.53
51067;BME280;37112;45.892;-123.962;2023-05-21T06:27:12;102275.30;;;13.47;84.52
51067;BME280;37112;45.892;-123.962;2023-05-21T06:29:37;102272.11;;;13.46;84.67
51067;BME280;37112;45.892;-123.962;2023-05-21T06:32:00;102279.36;;;13.48;84.69
51067;BME280;37112;45.892;-123.962;2023-05-21T06:34:34;102280.25;;;13.48;84.95
51067;BME280;37112;45.892;-123.962;2023-05-21T06:36:55;102284.54;;;13.48;85.00
51067;BME280;37112;45.892;-123.962;2023-05-21T06:39:16;102286.27;;;13.49;85.32
51067;BME280;37112;45.892;-123.962;2023-05-21T06:41:43;102281.98;;;13.51;85.48
51067;BME280;37112;45.892;-123.962;2023-05-21T06:44:24;102281.63;;;13.52;85.29
51067;BME280;37112;45.892;-123.962;2023-05-21T06:46:59;102281.94;;;13.52;85.41
51067;BME280;37112;45.892;-123.962;2023-05-21T06:49:34;102286.32;;;13.54;85.68
51067;BME280;37112;45.892;-123.962;2023-05-21T06:51:58;102291.85;;;13.54;85.47
51067;BME280;37112;45.892;-123.962;2023-05-21T06:54:34;102289.55;;;13.53;85.53
51067;BME280;37112;45.892;-123.962;2023-05-21T06:56:58;102291.29;;;13.55;85.82
51067;BME280;37112;45.892;-123.962;2023-05-21T06:59:16;102284.42;;;13.56;85.83
51067;BME280;37112;45.892;-123.962;2023-05-21T07:01:51;102284.96;;;13.56;85.83
51067;BME280;37112;45.892;-123.962;2023-05-21T07:04:20;102284.52;;;13.51;85.46
51067;BME280;37112;45.892;-123.962;2023-05-21T07:06:41;102285.51;;;13.43;85.21
51067;BME280;37112;45.892;-123.962;2023-05-21T07:09:13;102289.68;;;13.35;85.23
51067;BME280;37112;45.892;-123.962;2023-05-21T07:11:39;102288.36;;;13.26;85.24
51067;BME280;37112;45.892;-123.962;2023-05-21T07:14:14;102291.12;;;13.25;85.70
51067;BME280;37112;45.892;-123.962;2023-05-21T07:16:44;102289.19;;;13.25;85.86
51067;BME280;37112;45.892;-123.962;2023-05-21T07:19:10;102286.08;;;13.26;86.07
51067;BME280;37112;45.892;-123.962;2023-05-21T07:21:31;102287.50;;;13.29;86.28
51067;BME280;37112;45.892;-123.962;2023-05-21T07:23:49;102290.34;;;13.33;86.46
51067;BME280;37112;45.892;-123.962;2023-05-21T07:26:07;102288.31;;;13.37;86.61
51067;BME280;37112;45.892;-123.962;2023-05-21T07:28:31;102292.63;;;13.40;86.62
51067;BME280;37112;45.892;-123.962;2023-05-21T07:31:05;102292.98;;;13.43;86.69
51067;BME280;37112;45.892;-123.962;2023-05-21T07:33:22;102291.68;;;13.44;86.63
51067;BME280;37112;45.892;-123.962;2023-05-21T07:35:56;102286.96;;;13.45;86.71
51067;BME280;37112;45.892;-123.962;2023-05-21T07:38:23;102288.26;;;13.45;86.49
51067;BME280;37112;45.892;-123.962;2023-05-21T07:40:50;102290.29;;;13.37;86.09
51067;BME280;37112;45.892;-123.962;2023-05-21T07:43:24;102294.33;;;13.25;85.92
51067;BME280;37112;45.892;-123.962;2023-05-21T07:45:57;102291.63;;;13.12;86.20
51067;BME280;37112;45.892;-123.962;2023-05-21T07:48:24;102288.96;;;13.01;86.24
51067;BME280;37112;45.892;-123.962;2023-05-21T07:50:58;102293.20;;;12.98;86.61
51067;BME280;37112;45.892;-123.962;2023-05-21T07:53:26;102296.38;;;12.99;86.98
51067;BME280;37112;45.892;-123.962;2023-05-21T07:55:56;102294.33;;;13.01;87.26
51067;BME280;37112;45.892;-123.962;2023-05-21T07:58:16;102293.83;;;13.04;87.31
51067;BME280;37112;45.892;-123.962;2023-05-21T08:00:50;102296.16;;;13.06;87.42
51067;BME280;37112;45.892;-123.962;2023-05-21T08:03:25;102291.55;;;13.09;87.58
51067;BME280;37112;45.892;-123.962;2023-05-21T08:05:50;102287.15;;;13.12;87.60
51067;BME280;37112;45.892;-123.962;2023-05-21T08:08:24;102290.94;;;13.15;87.40
51067;BME280;37112;45.892;-123.962;2023-05-21T08:10:58;102295.16;;;13.16;87.42
51067;BME280;37112;45.892;-123.962;2023-05-21T08:13:33;102291.89;;;13.17;87.52
51067;BME280;37112;45.892;-123.962;2023-05-21T08:16:09;102285.87;;;13.16;87.57
51067;BME280;37112;45.892;-123.962;2023-05-21T08:18:33;102286.87;;;13.17;87.55
51067;BME280;37112;45.892;-123.962;2023-05-21T08:20:53;102290.14;;;13.16;87.36
51067;BME280;37112;45.892;-123.962;2023-05-21T08:23:27;102292.20;;;13.14;87.19
51067;BME280;37112;45.892;-123.962;2023-05-21T08:25:51;102299.42;;;13.12;87.28
51067;BME280;37112;45.892;-123.962;2023-05-21T08:28:25;102299.02;;;13.07;87.32
51067;BME280;37112;45.892;-123.962;2023-05-21T08:30:59;102298.63;;;13.00;87.20
51067;BME280;37112;45.892;-123.962;2023-05-21T08:33:28;102301.98;;;12.98;87.41
51067;BME280;37112;45.892;-123.962;2023-05-21T08:36:02;102301.02;;;12.99;87.61
51067;BME280;37112;45.892;-123.962;2023-05-21T08:38:32;102299.80;;;13.02;87.96
51067;BME280;37112;45.892;-123.962;2023-05-21T08:41:19;102304.69;;;13.04;87.96
51067;BME280;37112;45.892;-123.962;2023-05-21T08:43:50;102311.66;;;13.00;88.03
51067;BME280;37112;45.892;-123.962;2023-05-21T08:46:14;102309.39;;;12.93;87.83
51067;BME280;37112;45.892;-123.962;2023-05-21T08:48:46;102319.20;;;12.89;88.16
51067;BME280;37112;45.892;-123.962;2023-05-21T08:51:14;102319.35;;;12.82;88.39
51067;BME280;37112;45.892;-123.962;2023-05-21T08:53:54;102321.52;;;12.79;88.90
51067;BME280;37112;45.892;-123.962;2023-05-21T08:56:20;102321.27;;;12.73;88.97
51067;BME280;37112;45.892;-123.962;2023-05-21T08:58:47;102322.64;;;12.67;88.81
51067;BME280;37112;45.892;-123.962;2023-05-21T09:01:17;102326.42;;;12.59;90.12
51067;BME280;37112;45.892;-123.962;2023-05-21T09:03:47;102319.51;;;12.51;90.05
51067;BME280;37112;45.892;-123.962;2023-05-21T09:06:21;102319.32;;;12.45;90.68
51067;BME280;37112;45.892;-123.962;2023-05-21T09:09:01;102319.22;;;12.39;90.29
51067;BME280;37112;45.892;-123.962;2023-05-21T09:11:33;102310.73;;;12.35;90.37
51067;BME280;37112;45.892;-123.962;2023-05-21T09:14:01;102303.11;;;12.31;90.50
51067;BME280;37112;45.892;-123.962;2023-05-21T09:16:40;102299.72;;;12.27;90.42
51067;BME280;37112;45.892;-123.962;2023-05-21T09:19:06;102303.30;;;12.26;90.59
51067;BME280;37112;45.892;-123.962;2023-05-21T09:21:40;102299.05;;;12.26;91.12
51067;BME280;37112;45.892;-123.962;2023-05-21T09:24:16;102295.95;;;12.24;91.56
51067;BME280;37112;45.892;-123.962;2023-05-21T09:26:44;102296.52;;;12.23;91.68
51067;BME280;37112;45.892;-123.962;2023-05-21T09:29:05;102292.51;;;12.22;91.70
51067;BME280;37112;45.892;-123.962;2023-05-21T09:31:27;102294.30;;;12.21;91.58
51067;BME280;37112;45.892;-123.962;2023-05-21T09:34:00;102293.55;;;12.22;91.54
51067;BME280;37112;45.892;-123.962;2023-05-21T09:36:24;102296.04;;;12.26;91.76
51067;BME280;37112;45.892;-123.962;2023-05-21T09:39:01;102295.89;;;12.28;91.65
51067;BME280;37112;45.892;-123.962;2023-05-21T09:41:33;102296.57;;;12.33;91.76
51067;BME280;37112;45.892;-123.962;2023-05-21T09:43:54;102295.87;;;12.36;91.72
51067;BME280;37112;45.892;-123.962;2023-05-21T09:46:27;102294.61;;;12.40;91.92
51067;BME280;37112;45.892;-123.962;2023-05-21T09:49:24;102289.98;;;12.43;91.76
51067;BME280;37112;45.892;-123.962;2023-05-21T09:52:01;102290.65;;;12.48;92.09
51067;BME280;37112;45.892;-123.962;2023-05-21T09:54:29;102291.59;;;12.53;92.31
51067;BME280;37112;45.892;-123.962;2023-05-21T09:57:06;102290.80;;;12.59;92.21
51067;BME280;37112;45.892;-123.962;2023-05-21T09:59:42;102298.27;;;12.63;92.16
51067;BME280;37112;45.892;-123.962;2023-05-21T10:02:21;102301.20;;;12.65;91.85
51067;BME280;37112;45.892;-123.962;2023-05-21T10:04:57;102300.52;;;12.64;91.76
51067;BME280;37112;45.892;-123.962;2023-05-21T10:07:25;102297.41;;;12.66;91.53
51067;BME280;37112;45.892;-123.962;2023-05-21T10:09:56;102300.74;;;12.67;91.53
51067;BME280;37112;45.892;-123.962;2023-05-21T10:12:18;102301.75;;;12.68;91.67
51067;BME280;37112;45.892;-123.962;2023-05-21T10:14:49;102300.47;;;12.69;91.67
51067;BME280;37112;45.892;-123.962;2023-05-21T10:17:16;102296.48;;;12.66;91.02
51067;BME280;37112;45.892;-123.962;2023-05-21T10:19:37;102299.29;;;12.64;90.97
51067;BME280;37112;45.892;-123.962;2023-05-21T10:22:00;102295.06;;;12.66;91.10
51067;BME280;37112;45.892;-123.962;2023-05-21T10:24:35;102291.46;;;12.67;91.13
51067;BME280;37112;45.892;-123.962;2023-05-21T10:27:11;102293.27;;;12.70;91.34
51067;BME280;37112;45.892;-123.962;2023-05-21T10:29:39;102288.30;;;12.73;91.46
51067;BME280;37112;45.892;-123.962;2023-05-21T10:32:06;102287.98;;;12.75;91.51
51067;BME280;37112;45.892;-123.962;2023-05-21T10:34:25;102286.98;;;12.78;91.45
51067;BME280;37112;45.892;-123.962;2023-05-21T10:37:02;102282.66;;;12.79;91.24
51067;BME280;37112;45.892;-123.962;2023-05-21T10:39:27;102278.60;;;12.78;91.21
51067;BME280;37112;45.892;-123.962;2023-05-21T10:42:11;102278.86;;;12.80;91.24
51067;BME280;37112;45.892;-123.962;2023-05-21T10:44:49;102277.84;;;12.82;91.18
51067;BME280;37112;45.892;-123.962;2023-05-21T10:47:42;102278.10;;;12.83;91.28
51067;BME280;37112;45.892;-123.962;2023-05-21T10:50:35;102277.73;;;12.85;91.35
51067;BME280;37112;45.892;-123.962;2023-05-21T10:53:15;102277.04;;;12.84;91.11
51067;BME280;37112;45.892;-123.962;2023-05-21T10:55:55;102275.64;;;12.83;91.18
51067;BME280;37112;45.892;-123.962;2023-05-21T10:58:53;102275.05;;;12.85;91.33
51067;BME280;37112;45.892;-123.962;2023-05-21T11:01:35;102280.06;;;12.84;91.01
51067;BME280;37112;45.892;-123.962;2023-05-21T11:03:57;102282.02;;;12.84;91.06
51067;BME280;37112;45.892;-123.962;2023-05-21T11:06:22;102280.89;;;12.86;91.18
51067;BME280;37112;45.892;-123.962;2023-05-21T11:08:51;102281.34;;;12.87;91.33
51067;BME280;37112;45.892;-123.962;2023-05-21T11:11:41;102286.85;;;12.87;91.16
51067;BME280;37112;45.892;-123.962;2023-05-21T11:14:30;102279.69;;;12.88;91.17
51067;BME280;37112;45.892;-123.962;2023-05-21T11:16:54;102277.69;;;12.89;91.03
51067;BME280;37112;45.892;-123.962;2023-05-21T11:19:21;102277.95;;;12.90;91.20
51067;BME280;37112;45.892;-123.962;2023-05-21T11:21:57;102280.02;;;12.91;91.08
51067;BME280;37112;45.892;-123.962;2023-05-21T11:24:34;102282.06;;;12.90;90.96
51067;BME280;37112;45.892;-123.962;2023-05-21T11:27:03;102287.92;;;12.90;90.72
51067;BME280;37112;45.892;-123.962;2023-05-21T11:29:46;102283.94;;;12.91;90.82
51067;BME280;37112;45.892;-123.962;2023-05-21T11:32:19;102283.88;;;12.93;90.85
51067;BME280;37112;45.892;-123.962;2023-05-21T11:34:47;102289.86;;;12.94;90.89
51067;BME280;37112;45.892;-123.962;2023-05-21T11:37:33;102292.89;;;12.94;90.90
51067;BME280;37112;45.892;-123.962;2023-05-21T11:42:59;102294.83;;;12.88;90.22
51067;BME280;37112;45.892;-123.962;2023-05-21T11:45:18;102296.90;;;12.86;90.24
51067;BME280;37112;45.892;-123.962;2023-05-21T11:47:47;102293.23;;;12.85;90.42
51067;BME280;37112;45.892;-123.962;2023-05-21T11:50:17;102302.84;;;12.85;90.67
51067;BME280;37112;45.892;-123.962;2023-05-21T11:52:38;102305.08;;;12.87;90.80
51067;BME280;37112;45.892;-123.962;2023-05-21T11:55:14;102307.44;;;12.86;90.53
51067;BME280;37112;45.892;-123.962;2023-05-21T11:57:42;102310.73;;;12.84;90.55
51067;BME280;37112;45.892;-123.962;2023-05-21T12:00:21;102310.67;;;12.81;90.45
51067;BME280;37112;45.892;-123.962;2023-05-21T12:02:50;102308.27;;;12.80;90.32
51067;BME280;37112;45.892;-123.962;2023-05-21T12:05:17;102314.41;;;12.78;90.29
51067;BME280;37112;45.892;-123.962;2023-05-21T12:07:39;102312.17;;;12.77;90.24
51067;BME280;37112;45.892;-123.962;2023-05-21T12:10:04;102313.09;;;12.76;90.48
51067;BME280;37112;45.892;-123.962;2023-05-21T12:12:32;102313.40;;;12.77;90.58
51067;BME280;37112;45.892;-123.962;2023-05-21T12:15:19;102321.54;;;12.78;90.56
51067;BME280;37112;45.892;-123.962;2023-05-21T12:17:54;102325.33;;;12.77;90.52
51067;BME280;37112;45.892;-123.962;2023-05-21T12:20:20;102324.62;;;12.77;90.41
51067;BME280;37112;45.892;-123.962;2023-05-21T12:22:43;102323.59;;;12.76;90.37
51067;BME280;37112;45.892;-123.962;2023-05-21T12:25:12;102322.34;;;12.77;90.48
51067;BME280;37112;45.892;-123.962;2023-05-21T12:27:44;102323.98;;;12.76;90.39
51067;BME280;37112;45.892;-123.962;2023-05-21T12:30:12;102327.27;;;12.68;89.72
51067;BME280;37112;45.892;-123.962;2023-05-21T12:32:33;102332.41;;;12.61;89.78
51067;BME280;37112;45.892;-123.962;2023-05-21T12:35:11;102335.74;;;12.58;89.93